sensor_id;sensor_type;location;lat;lon;timestamp;pressure;altitude;pressure_sealevel;temperature
56286;BMP180;42191;47.562;9.686;2022-10-31T00:01:44;97364.00;;;14.50
56286;BMP180;42191;47.562;9.686;2022-10-31T00:04:10;97362.00;;;14.50
56286;BMP180;42191;47.562;9.686;2022-10-31T00:06:36;97368.00;;;14.50
56286;BMP180;42191;47.562;9.686;2022-10-31T00:09:03;97367.00;;;14.40
56286;BMP180;42191;47.562;9.686;2022-10-31T00:11:30;97364.00;;;14.40
56286;BMP180;42191;47.562;9.686;2022-10-31T00:14:00;97359.00;;;14.40
56286;BMP180;42191;47.562;9.686;2022-10-31T00:16:27;97364.00;;;14.40
56286;BMP180;42191;47.562;9.686;2022-10-31T00:18:56;97369.00;;;14.40
56286;BMP180;42191;47.562;9.686;2022-10-31T00:21:22;97366.00;;;14.40
56286;BMP180;42191;47.562;9.686;2022-10-31T00:23:49;97367.00;;;14.50
56286;BMP180;42191;47.562;9.686;2022-10-31T00:26:15;97364.00;;;14.50
56286;BMP180;42191;47.562;9.686;2022-10-31T00:28:41;97366.00;;;14.50
56286;BMP180;42191;47.562;9.686;2022-10-31T00:31:09;97366.00;;;14.50
56286;BMP180;42191;47.562;9.686;2022-10-31T00:33:37;97368.00;;;14.50
56286;BMP180;42191;47.562;9.686;2022-10-31T00:36:05;97361.00;;;14.50
56286;BMP180;42191;47.562;9.686;2022-10-31T00:38:31;97367.00;;;14.50
56286;BMP180;42191;47.562;9.686;2022-10-31T00:40:57;97362.00;;;14.50
56286;BMP180;42191;47.562;9.686;2022-10-31T00:43:23;97357.00;;;14.50
56286;BMP180;42191;47.562;9.686;2022-10-31T00:45:50;97358.00;;;14.50
56286;BMP180;42191;47.562;9.686;2022-10-31T00:48:16;97362.00;;;14.40
56286;BMP180;42191;47.562;9.686;2022-10-31T00:50:42;97350.00;;;14.40
56286;BMP180;42191;47.562;9.686;2022-10-31T00:53:08;97357.00;;;14.30
56286;BMP180;42191;47.562;9.686;2022-10-31T00:55:35;97357.00;;;14.30
56286;BMP180;42191;47.562;9.686;2022-10-31T00:58:01;97356.00;;;14.30
56286;BMP180;42191;47.562;9.686;2022-10-31T01:00:27;97354.00;;;14.20
56286;BMP180;42191;47.562;9.686;2022-10-31T01:02:53;97356.00;;;14.20
56286;BMP180;42191;47.562;9.686;2022-10-31T01:05:20;97344.00;;;14.20
56286;BMP180;42191;47.562;9.686;2022-10-31T01:07:46;97358.00;;;14.20
56286;BMP180;42191;47.562;9.686;2022-10-31T01:10:12;97353.00;;;14.20
56286;BMP180;42191;47.562;9.686;2022-10-31T01:12:44;97355.00;;;14.20
56286;BMP180;42191;47.562;9.686;2022-10-31T01:15:12;97355.00;;;14.20
56286;BMP180;42191;47.562;9.686;2022-10-31T01:17:39;97345.00;;;14.30
56286;BMP180;42191;47.562;9.686;2022-10-31T01:20:07;97345.00;;;14.30
56286;BMP180;42191;47.562;9.686;2022-10-31T01:22:34;97348.00;;;14.30
56286;BMP180;42191;47.562;9.686;2022-10-31T01:25:00;97342.00;;;14.40
56286;BMP180;42191;47.562;9.686;2022-10-31T01:27:27;97343.00;;;14.40
56286;BMP180;42191;47.562;9.686;2022-10-31T01:29:53;97347.00;;;14.40
56286;BMP180;42191;47.562;9.686;2022-10-31T01:32:19;97339.00;;;14.40
56286;BMP180;42191;47.562;9.686;2022-10-31T01:34:45;97344.00;;;14.40
56286;BMP180;42191;47.562;9.686;2022-10-31T01:37:12;97347.00;;;14.40
56286;BMP180;42191;47.562;9.686;2022-10-31T01:39:38;97341.00;;;14.40
56286;BMP180;42191;47.562;9.686;2022-10-31T01:42:04;97343.00;;;14.40
56286;BMP180;42191;47.562;9.686;2022-10-31T01:47:21;97346.00;;;14.40
56286;BMP180;42191;47.562;9.686;2022-10-31T01:49:54;97338.00;;;14.40
56286;BMP180;42191;47.562;9.686;2022-10-31T01:52:35;97341.00;;;14.40
56286;BMP180;42191;47.562;9.686;2022-10-31T01:57:52;97337.00;;;14.30
56286;BMP180;42191;47.562;9.686;2022-10-31T02:00:20;97341.00;;;14.30
56286;BMP180;42191;47.562;9.686;2022-10-31T02:02:48;97328.00;;;14.20
56286;BMP180;42191;47.562;9.686;2022-10-31T02:05:20;97332.00;;;14.20
56286;BMP180;42191;47.562;9.686;2022-10-31T02:08:06;97331.00;;;14.10
56286;BMP180;42191;47.562;9.686;2022-10-31T02:10:36;97342.00;;;14.00
56286;BMP180;42191;47.562;9.686;2022-10-31T02:13:04;97332.00;;;13.90
56286;BMP180;42191;47.562;9.686;2022-10-31T02:15:32;97325.00;;;13.80
56286;BMP180;42191;47.562;9.686;2022-10-31T02:17:58;97334.00;;;13.80
56286;BMP180;42191;47.562;9.686;2022-10-31T02:20:27;97331.00;;;13.70
56286;BMP180;42191;47.562;9.686;2022-10-31T02:25:55;97337.00;;;13.60
56286;BMP180;42191;47.562;9.686;2022-10-31T02:33:52;97326.00;;;13.50
56286;BMP180;42191;47.562;9.686;2022-10-31T02:42:03;97314.00;;;13.30
56286;BMP180;42191;47.562;9.686;2022-10-31T02:47:13;97323.00;;;13.20
56286;BMP180;42191;47.562;9.686;2022-10-31T02:52:31;97331.00;;;13.10
56286;BMP180;42191;47.562;9.686;2022-10-31T02:54:58;97322.00;;;13.10
56286;BMP180;42191;47.562;9.686;2022-10-31T02:57:35;97324.00;;;13.10
56286;BMP180;42191;47.562;9.686;2022-10-31T03:00:05;97329.00;;;13.00
56286;BMP180;42191;47.562;9.686;2022-10-31T03:08:19;97319.00;;;13.00
56286;BMP180;42191;47.562;9.686;2022-10-31T03:10:57;97313.00;;;13.00
56286;BMP180;42191;47.562;9.686;2022-10-31T03:13:39;97317.00;;;12.90
56286;BMP180;42191;47.562;9.686;2022-10-31T03:19:06;97330.00;;;12.90
56286;BMP180;42191;47.562;9.686;2022-10-31T03:21:44;97317.00;;;12.80
56286;BMP180;42191;47.562;9.686;2022-10-31T03:24:12;97317.00;;;12.80
56286;BMP180;42191;47.562;9.686;2022-10-31T03:26:46;97315.00;;;12.80
56286;BMP180;42191;47.562;9.686;2022-10-31T03:29:16;97321.00;;;12.70
56286;BMP180;42191;47.562;9.686;2022-10-31T03:32:39;97315.00;;;12.70
56286;BMP180;42191;47.562;9.686;2022-10-31T03:34:46;97314.00;;;12.70
56286;BMP180;42191;47.562;9.686;2022-10-31T03:37:17;97314.00;;;12.70
56286;BMP180;42191;47.562;9.686;2022-10-31T03:39:45;97315.00;;;12.60
56286;BMP180;42191;47.562;9.686;2022-10-31T03:42:18;97317.00;;;12.60
56286;BMP180;42191;47.562;9.686;2022-10-31T03:44:55;97325.00;;;12.60
56286;BMP180;42191;47.562;9.686;2022-10-31T03:47:22;97316.00;;;12.60
56286;BMP180;42191;47.562;9.686;2022-10-31T03:49:49;97315.00;;;12.50
56286;BMP180;42191;47.562;9.686;2022-10-31T03:52:39;97333.00;;;12.50
56286;BMP180;42191;47.562;9.686;2022-10-31T03:58:02;97324.00;;;12.50
56286;BMP180;42191;47.562;9.686;2022-10-31T04:00:31;97326.00;;;12.50
56286;BMP180;42191;47.562;9.686;2022-10-31T04:03:06;97323.00;;;12.50
56286;BMP180;42191;47.562;9.686;2022-10-31T04:05:34;97317.00;;;12.50
56286;BMP180;42191;47.562;9.686;2022-10-31T04:08:01;97307.00;;;12.40
56286;BMP180;42191;47.562;9.686;2022-10-31T04:10:29;97304.00;;;12.40
56286;BMP180;42191;47.562;9.686;2022-10-31T04:13:02;97303.00;;;12.40
56286;BMP180;42191;47.562;9.686;2022-10-31T04:15:30;97300.00;;;12.40
56286;BMP180;42191;47.562;9.686;2022-10-31T04:17:58;97308.00;;;12.40
56286;BMP180;42191;47.562;9.686;2022-10-31T04:20:34;97301.00;;;12.40
56286;BMP180;42191;47.562;9.686;2022-10-31T04:25:39;97303.00;;;12.30
56286;BMP180;42191;47.562;9.686;2022-10-31T04:28:05;97302.00;;;12.30
56286;BMP180;42191;47.562;9.686;2022-10-31T04:30:31;97306.00;;;12.30
56286;BMP180;42191;47.562;9.686;2022-10-31T04:32:57;97294.00;;;12.30
56286;BMP180;42191;47.562;9.686;2022-10-31T04:35:23;97301.00;;;12.30
56286;BMP180;42191;47.562;9.686;2022-10-31T04:37:49;97287.00;;;12.30
56286;BMP180;42191;47.562;9.686;2022-10-31T04:40:16;97284.00;;;12.20
56286;BMP180;42191;47.562;9.686;2022-10-31T04:42:42;97284.00;;;12.20
56286;BMP180;42191;47.562;9.686;2022-10-31T04:45:08;97284.00;;;12.20
56286;BMP180;42191;47.562;9.686;2022-10-31T04:47:34;97278.00;;;12.10
56286;BMP180;42191;47.562;9.686;2022-10-31T04:50:01;97279.00;;;12.10
56286;BMP180;42191;47.562;9.686;2022-10-31T04:52:27;97273.00;;;12.00
56286;BMP180;42191;47.562;9.686;2022-10-31T04:54:54;97280.00;;;12.00
56286;BMP180;42191;47.562;9.686;2022-10-31T04:57:20;97267.00;;;12.00
56286;BMP180;42191;47.562;9.686;2022-10-31T04:59:46;97261.00;;;12.00
56286;BMP180;42191;47.562;9.686;2022-10-31T05:02:12;97261.00;;;12.00
56286;BMP180;42191;47.562;9.686;2022-10-31T05:04:38;97263.00;;;12.00
56286;BMP180;42191;47.562;9.686;2022-10-31T05:07:04;97255.00;;;11.90
56286;BMP180;42191;47.562;9.686;2022-10-31T05:09:31;97260.00;;;11.90
56286;BMP180;42191;47.562;9.686;2022-10-31T05:11:57;97258.00;;;11.90
56286;BMP180;42191;47.562;9.686;2022-10-31T05:14:23;97249.00;;;11.90
56286;BMP180;42191;47.562;9.686;2022-10-31T05:16:49;97259.00;;;11.90
56286;BMP180;42191;47.562;9.686;2022-10-31T05:19:15;97257.00;;;11.80
56286;BMP180;42191;47.562;9.686;2022-10-31T05:21:42;97254.00;;;11.80
56286;BMP180;42191;47.562;9.686;2022-10-31T05:24:08;97244.00;;;11.80
56286;BMP180;42191;47.562;9.686;2022-10-31T05:26:34;97245.00;;;11.80
56286;BMP180;42191;47.562;9.686;2022-10-31T05:29:00;97256.00;;;11.80
56286;BMP180;42191;47.562;9.686;2022-10-31T05:31:26;97255.00;;;11.80
56286;BMP180;42191;47.562;9.686;2022-10-31T05:33:52;97256.00;;;11.80
56286;BMP180;42191;47.562;9.686;2022-10-31T05:36:18;97252.00;;;11.80
56286;BMP180;42191;47.562;9.686;2022-10-31T05:38:44;97247.00;;;11.70
56286;BMP180;42191;47.562;9.686;2022-10-31T05:41:11;97241.00;;;11.80
56286;BMP180;42191;47.562;9.686;2022-10-31T05:43:37;97235.00;;;11.70
56286;BMP180;42191;47.562;9.686;2022-10-31T05:46:03;97230.00;;;11.70
56286;BMP180;42191;47.562;9.686;2022-10-31T05:48:29;97225.00;;;11.70
56286;BMP180;42191;47.562;9.686;2022-10-31T05:50:55;97231.00;;;11.70
56286;BMP180;42191;47.562;9.686;2022-10-31T05:53:21;97225.00;;;11.60
56286;BMP180;42191;47.562;9.686;2022-10-31T05:55:50;97223.00;;;11.60
56286;BMP180;42191;47.562;9.686;2022-10-31T05:58:16;97220.00;;;11.60
56286;BMP180;42191;47.562;9.686;2022-10-31T06:00:42;97225.00;;;11.60
56286;BMP180;42191;47.562;9.686;2022-10-31T06:03:09;97225.00;;;11.60
56286;BMP180;42191;47.562;9.686;2022-10-31T06:05:35;97227.00;;;11.50
56286;BMP180;42191;47.562;9.686;2022-10-31T06:08:01;97222.00;;;11.50
56286;BMP180;42191;47.562;9.686;2022-10-31T06:10:28;97224.00;;;11.50
56286;BMP180;42191;47.562;9.686;2022-10-31T06:12:54;97223.00;;;11.50
56286;BMP180;42191;47.562;9.686;2022-10-31T06:15:20;97233.00;;;11.50
56286;BMP180;42191;47.562;9.686;2022-10-31T06:17:56;97221.00;;;11.50
56286;BMP180;42191;47.562;9.686;2022-10-31T06:20:22;97231.00;;;11.50
56286;BMP180;42191;47.562;9.686;2022-10-31T06:22:48;97241.00;;;11.50
56286;BMP180;42191;47.562;9.686;2022-10-31T06:25:14;97235.00;;;11.40
56286;BMP180;42191;47.562;9.686;2022-10-31T06:27:40;97233.00;;;11.40
56286;BMP180;42191;47.562;9.686;2022-10-31T06:30:07;97240.00;;;11.40
56286;BMP180;42191;47.562;9.686;2022-10-31T06:32:33;97232.00;;;11.50
56286;BMP180;42191;47.562;9.686;2022-10-31T06:34:59;97238.00;;;11.50
56286;BMP180;42191;47.562;9.686;2022-10-31T06:37:25;97232.00;;;11.50
56286;BMP180;42191;47.562;9.686;2022-10-31T06:39:51;97229.00;;;11.50
56286;BMP180;42191;47.562;9.686;2022-10-31T06:42:17;97230.00;;;11.60
56286;BMP180;42191;47.562;9.686;2022-10-31T06:44:44;97236.00;;;11.70
56286;BMP180;42191;47.562;9.686;2022-10-31T06:47:10;97247.00;;;11.80
56286;BMP180;42191;47.562;9.686;2022-10-31T06:49:36;97235.00;;;11.90
56286;BMP180;42191;47.562;9.686;2022-10-31T06:52:02;97246.00;;;12.00
56286;BMP180;42191;47.562;9.686;2022-10-31T06:54:28;97242.00;;;12.10
56286;BMP180;42191;47.562;9.686;2022-10-31T06:56:54;97233.00;;;12.20
56286;BMP180;42191;47.562;9.686;2022-10-31T06:59:21;97235.00;;;12.30
56286;BMP180;42191;47.562;9.686;2022-10-31T07:01:47;97246.00;;;12.40
56286;BMP180;42191;47.562;9.686;2022-10-31T07:04:13;97243.00;;;12.40
56286;BMP180;42191;47.562;9.686;2022-10-31T07:06:39;97243.00;;;12.50
56286;BMP180;42191;47.562;9.686;2022-10-31T07:09:05;97253.00;;;12.60
56286;BMP180;42191;47.562;9.686;2022-10-31T07:11:31;97246.00;;;12.70
56286;BMP180;42191;47.562;9.686;2022-10-31T07:13:58;97253.00;;;12.80
56286;BMP180;42191;47.562;9.686;2022-10-31T07:16:25;97246.00;;;12.90
56286;BMP180;42191;47.562;9.686;2022-10-31T07:18:51;97256.00;;;13.00
56286;BMP180;42191;47.562;9.686;2022-10-31T07:21:17;97253.00;;;13.00
56286;BMP180;42191;47.562;9.686;2022-10-31T07:23:43;97256.00;;;13.10
56286;BMP180;42191;47.562;9.686;2022-10-31T07:26:10;97260.00;;;13.20
56286;BMP180;42191;47.562;9.686;2022-10-31T07:28:36;97253.00;;;13.30
56286;BMP180;42191;47.562;9.686;2022-10-31T07:31:02;97260.00;;;13.40
56286;BMP180;42191;47.562;9.686;2022-10-31T07:33:28;97255.00;;;13.50
56286;BMP180;42191;47.562;9.686;2022-10-31T07:35:54;97257.00;;;13.50
56286;BMP180;42191;47.562;9.686;2022-10-31T07:38:20;97245.00;;;13.60
56286;BMP180;42191;47.562;9.686;2022-10-31T07:40:51;97258.00;;;13.80
56286;BMP180;42191;47.562;9.686;2022-10-31T07:43:20;97252.00;;;13.90
56286;BMP180;42191;47.562;9.686;2022-10-31T07:45:51;97245.00;;;14.00
56286;BMP180;42191;47.562;9.686;2022-10-31T07:48:17;97255.00;;;14.10
56286;BMP180;42191;47.562;9.686;2022-10-31T07:50:43;97255.00;;;14.20
56286;BMP180;42191;47.562;9.686;2022-10-31T07:53:12;97256.00;;;14.30
56286;BMP180;42191;47.562;9.686;2022-10-31T07:55:38;97257.00;;;14.40
56286;BMP180;42191;47.562;9.686;2022-10-31T07:58:06;97248.00;;;14.50
56286;BMP180;42191;47.562;9.686;2022-10-31T08:00:34;97239.00;;;14.50
56286;BMP180;42191;47.562;9.686;2022-10-31T08:03:02;97249.00;;;14.60
56286;BMP180;42191;47.562;9.686;2022-10-31T08:05:29;97240.00;;;14.70
56286;BMP180;42191;47.562;9.686;2022-10-31T08:07:55;97239.00;;;14.70
56286;BMP180;42191;47.562;9.686;2022-10-31T08:10:22;97257.00;;;14.80
56286;BMP180;42191;47.562;9.686;2022-10-31T08:12:58;97238.00;;;14.90
56286;BMP180;42191;47.562;9.686;2022-10-31T08:15:25;97247.00;;;15.00
56286;BMP180;42191;47.562;9.686;2022-10-31T08:17:52;97244.00;;;15.10
56286;BMP180;42191;47.562;9.686;2022-10-31T08:20:18;97244.00;;;15.20
56286;BMP180;42191;47.562;9.686;2022-10-31T08:22:56;97249.00;;;15.30
56286;BMP180;42191;47.562;9.686;2022-10-31T08:25:23;97248.00;;;15.40
56286;BMP180;42191;47.562;9.686;2022-10-31T08:27:51;97244.00;;;15.50
56286;BMP180;42191;47.562;9.686;2022-10-31T08:30:17;97242.00;;;15.50
56286;BMP180;42191;47.562;9.686;2022-10-31T08:32:44;97247.00;;;15.70
56286;BMP180;42191;47.562;9.686;2022-10-31T08:35:10;97235.00;;;15.80
56286;BMP180;42191;47.562;9.686;2022-10-31T08:37:36;97230.00;;;15.90
56286;BMP180;42191;47.562;9.686;2022-10-31T08:40:02;97224.00;;;16.00
56286;BMP180;42191;47.562;9.686;2022-10-31T08:42:28;97227.00;;;16.00
56286;BMP180;42191;47.562;9.686;2022-10-31T08:44:54;97228.00;;;16.10
56286;BMP180;42191;47.562;9.686;2022-10-31T08:47:20;97228.00;;;16.20
56286;BMP180;42191;47.562;9.686;2022-10-31T08:49:46;97231.00;;;16.20
56286;BMP180;42191;47.562;9.686;2022-10-31T08:52:12;97223.00;;;16.20
56286;BMP180;42191;47.562;9.686;2022-10-31T08:54:40;97230.00;;;16.20
56286;BMP180;42191;47.562;9.686;2022-10-31T08:57:06;97212.00;;;16.30
56286;BMP180;42191;47.562;9.686;2022-10-31T08:59:32;97217.00;;;16.30
56286;BMP180;42191;47.562;9.686;2022-10-31T09:01:58;97218.00;;;16.30
56286;BMP180;42191;47.562;9.686;2022-10-31T09:04:25;97223.00;;;16.40
56286;BMP180;42191;47.562;9.686;2022-10-31T09:06:51;97222.00;;;16.40
56286;BMP180;42191;47.562;9.686;2022-10-31T09:09:17;97215.00;;;16.50
56286;BMP180;42191;47.562;9.686;2022-10-31T09:11:43;97230.00;;;16.50
56286;BMP180;42191;47.562;9.686;2022-10-31T09:14:09;97221.00;;;16.60
56286;BMP180;42191;47.562;9.686;2022-10-31T09:16:35;97213.00;;;16.60
56286;BMP180;42191;47.562;9.686;2022-10-31T09:19:01;97215.00;;;16.60
56286;BMP180;42191;47.562;9.686;2022-10-31T09:21:27;97210.00;;;16.60
56286;BMP180;42191;47.562;9.686;2022-10-31T09:23:53;97229.00;;;16.70
56286;BMP180;42191;47.562;9.686;2022-10-31T09:26:20;97225.00;;;16.70
56286;BMP180;42191;47.562;9.686;2022-10-31T09:28:46;97212.00;;;16.70
56286;BMP180;42191;47.562;9.686;2022-10-31T09:31:13;97209.00;;;16.70
56286;BMP180;42191;47.562;9.686;2022-10-31T09:33:39;97224.00;;;16.70
56286;BMP180;42191;47.562;9.686;2022-10-31T09:36:05;97213.00;;;16.80
56286;BMP180;42191;47.562;9.686;2022-10-31T09:38:31;97223.00;;;16.90
56286;BMP180;42191;47.562;9.686;2022-10-31T09:44:14;97224.00;;;16.90
56286;BMP180;42191;47.562;9.686;2022-10-31T09:47:02;97226.00;;;17.00
56286;BMP180;42191;47.562;9.686;2022-10-31T09:49:35;97217.00;;;17.00
56286;BMP180;42191;47.562;9.686;2022-10-31T09:54:54;97227.00;;;17.00
56286;BMP180;42191;47.562;9.686;2022-10-31T09:57:40;97221.00;;;17.10
56286;BMP180;42191;47.562;9.686;2022-10-31T10:00:10;97225.00;;;17.10
56286;BMP180;42191;47.562;9.686;2022-10-31T10:03:11;97211.00;;;17.20
56286;BMP180;42191;47.562;9.686;2022-10-31T10:05:57;97214.00;;;17.20
56286;BMP180;42191;47.562;9.686;2022-10-31T10:08:28;97215.00;;;17.30
56286;BMP180;42191;47.562;9.686;2022-10-31T10:13:48;97223.00;;;17.60
56286;BMP180;42191;47.562;9.686;2022-10-31T10:21:50;97212.00;;;18.00
56286;BMP180;42191;47.562;9.686;2022-10-31T10:27:36;97216.00;;;18.30
56286;BMP180;42191;47.562;9.686;2022-10-31T10:30:15;97216.00;;;18.40
56286;BMP180;42191;47.562;9.686;2022-10-31T10:33:08;97214.00;;;18.50
56286;BMP180;42191;47.562;9.686;2022-10-31T10:35:43;97220.00;;;18.60
56286;BMP180;42191;47.562;9.686;2022-10-31T10:38:20;97214.00;;;18.70
56286;BMP180;42191;47.562;9.686;2022-10-31T10:40:51;97211.00;;;18.80
56286;BMP180;42191;47.562;9.686;2022-10-31T10:43:23;97212.00;;;18.90
56286;BMP180;42191;47.562;9.686;2022-10-31T10:46:15;97213.00;;;19.00
56286;BMP180;42191;47.562;9.686;2022-10-31T10:49:23;97205.00;;;19.10
56286;BMP180;42191;47.562;9.686;2022-10-31T10:52:55;97203.00;;;19.20
56286;BMP180;42191;47.562;9.686;2022-10-31T10:58:07;97209.00;;;19.40
56286;BMP180;42191;47.562;9.686;2022-10-31T11:00:44;97197.00;;;19.40
56286;BMP180;42191;47.562;9.686;2022-10-31T11:03:13;97187.00;;;19.50
56286;BMP180;42191;47.562;9.686;2022-10-31T11:06:16;97188.00;;;19.50
56286;BMP180;42191;47.562;9.686;2022-10-31T11:08:35;97181.00;;;19.50
56286;BMP180;42191;47.562;9.686;2022-10-31T11:13:45;97171.00;;;19.50
56286;BMP180;42191;47.562;9.686;2022-10-31T11:16:15;97180.00;;;19.50
56286;BMP180;42191;47.562;9.686;2022-10-31T11:18:52;97177.00;;;19.50
56286;BMP180;42191;47.562;9.686;2022-10-31T11:21:29;97168.00;;;19.50
56286;BMP180;42191;47.562;9.686;2022-10-31T11:26:41;97156.00;;;19.60
56286;BMP180;42191;47.562;9.686;2022-10-31T11:29:16;97159.00;;;19.70
56286;BMP180;42191;47.562;9.686;2022-10-31T11:31:45;97150.00;;;19.90
56286;BMP180;42191;47.562;9.686;2022-10-31T11:34:21;97153.00;;;20.00
56286;BMP180;42191;47.562;9.686;2022-10-31T11:36:48;97147.00;;;20.10
56286;BMP180;42191;47.562;9.686;2022-10-31T11:39:22;97137.00;;;20.10
56286;BMP180;42191;47.562;9.686;2022-10-31T11:41:49;97138.00;;;20.10
56286;BMP180;42191;47.562;9.686;2022-10-31T11:44:27;97146.00;;;20.20
56286;BMP180;42191;47.562;9.686;2022-10-31T11:46:59;97136.00;;;20.10
56286;BMP180;42191;47.562;9.686;2022-10-31T11:49:36;97141.00;;;20.00
56286;BMP180;42191;47.562;9.686;2022-10-31T11:52:30;97141.00;;;19.80
56286;BMP180;42191;47.562;9.686;2022-10-31T11:57:50;97140.00;;;19.60
56286;BMP180;42191;47.562;9.686;2022-10-31T12:03:11;97142.00;;;19.30
56286;BMP180;42191;47.562;9.686;2022-10-31T12:05:41;97141.00;;;19.30
56286;BMP180;42191;47.562;9.686;2022-10-31T12:08:11;97130.00;;;19.20
56286;BMP180;42191;47.562;9.686;2022-10-31T12:11:11;97140.00;;;19.10
56286;BMP180;42191;47.562;9.686;2022-10-31T12:17:15;97121.00;;;18.90
56286;BMP180;42191;47.562;9.686;2022-10-31T12:30:13;97112.00;;;18.90
56286;BMP180;42191;47.562;9.686;2022-10-31T12:41:56;97104.00;;;19.10
56286;BMP180;42191;47.562;9.686;2022-10-31T12:48:00;97081.00;;;19.10
56286;BMP180;42191;47.562;9.686;2022-10-31T12:53:05;97086.00;;;19.20
56286;BMP180;42191;47.562;9.686;2022-10-31T12:58:32;97070.00;;;19.10
56286;BMP180;42191;47.562;9.686;2022-10-31T13:03:45;97071.00;;;19.30
56286;BMP180;42191;47.562;9.686;2022-10-31T13:06:18;97068.00;;;19.30
56286;BMP180;42191;47.562;9.686;2022-10-31T13:08:52;97058.00;;;19.30
56286;BMP180;42191;47.562;9.686;2022-10-31T13:11:24;97056.00;;;19.40
56286;BMP180;42191;47.562;9.686;2022-10-31T13:14:02;97062.00;;;19.40
56286;BMP180;42191;47.562;9.686;2022-10-31T13:16:38;97059.00;;;19.40
56286;BMP180;42191;47.562;9.686;2022-10-31T13:19:21;97046.00;;;19.50
56286;BMP180;42191;47.562;9.686;2022-10-31T13:24:21;97043.00;;;19.90
56286;BMP180;42191;47.562;9.686;2022-10-31T13:26:54;97042.00;;;20.10
56286;BMP180;42191;47.562;9.686;2022-10-31T13:29:31;97033.00;;;20.20
56286;BMP180;42191;47.562;9.686;2022-10-31T13:32:03;97023.00;;;20.40
56286;BMP180;42191;47.562;9.686;2022-10-31T13:34:36;97035.00;;;20.50
56286;BMP180;42191;47.562;9.686;2022-10-31T13:40:14;97022.00;;;20.80
56286;BMP180;42191;47.562;9.686;2022-10-31T13:45:34;97012.00;;;21.70
56286;BMP180;42191;47.562;9.686;2022-10-31T13:50:40;96996.00;;;22.80
56286;BMP180;42191;47.562;9.686;2022-10-31T13:53:13;97003.00;;;23.30
56286;BMP180;42191;47.562;9.686;2022-10-31T13:55:48;96990.00;;;23.80
56286;BMP180;42191;47.562;9.686;2022-10-31T13:58:27;96990.00;;;24.20
56286;BMP180;42191;47.562;9.686;2022-10-31T14:03:28;96997.00;;;24.90
56286;BMP180;42191;47.562;9.686;2022-10-31T14:05:56;97010.00;;;25.20
56286;BMP180;42191;47.562;9.686;2022-10-31T14:08:24;97004.00;;;25.40
56286;BMP180;42191;47.562;9.686;2022-10-31T14:10:51;97003.00;;;25.60
56286;BMP180;42191;47.562;9.686;2022-10-31T14:13:29;96997.00;;;25.80
56286;BMP180;42191;47.562;9.686;2022-10-31T14:16:01;96993.00;;;26.00
56286;BMP180;42191;47.562;9.686;2022-10-31T14:21:00;96981.00;;;26.40
56286;BMP180;42191;47.562;9.686;2022-10-31T14:23:37;96981.00;;;26.60
56286;BMP180;42191;47.562;9.686;2022-10-31T14:29:31;96974.00;;;26.90
56286;BMP180;42191;47.562;9.686;2022-10-31T14:34:40;96971.00;;;27.20
56286;BMP180;42191;47.562;9.686;2022-10-31T14:48:21;96954.00;;;27.80
56286;BMP180;42191;47.562;9.686;2022-10-31T14:50:53;96946.00;;;27.90
56286;BMP180;42191;47.562;9.686;2022-10-31T14:55:56;96954.00;;;27.90
56286;BMP180;42191;47.562;9.686;2022-10-31T14:58:42;96947.00;;;27.80
56286;BMP180;42191;47.562;9.686;2022-10-31T15:03:46;96951.00;;;27.50
56286;BMP180;42191;47.562;9.686;2022-10-31T15:06:15;96949.00;;;27.20
56286;BMP180;42191;47.562;9.686;2022-10-31T15:11:46;96950.00;;;26.90
56286;BMP180;42191;47.562;9.686;2022-10-31T15:14:05;96955.00;;;26.70
56286;BMP180;42191;47.562;9.686;2022-10-31T15:16:43;96947.00;;;26.60
56286;BMP180;42191;47.562;9.686;2022-10-31T15:19:24;96949.00;;;26.50
56286;BMP180;42191;47.562;9.686;2022-10-31T15:21:53;96948.00;;;26.40
56286;BMP180;42191;47.562;9.686;2022-10-31T15:24:20;96945.00;;;26.30
56286;BMP180;42191;47.562;9.686;2022-10-31T15:26:50;96934.00;;;26.10
56286;BMP180;42191;47.562;9.686;2022-10-31T15:29:19;96931.00;;;26.00
56286;BMP180;42191;47.562;9.686;2022-10-31T15:31:56;96934.00;;;25.90
56286;BMP180;42191;47.562;9.686;2022-10-31T15:36:52;96931.00;;;25.60
56286;BMP180;42191;47.562;9.686;2022-10-31T15:39:18;96930.00;;;25.40
56286;BMP180;42191;47.562;9.686;2022-10-31T15:41:55;96932.00;;;25.20
56286;BMP180;42191;47.562;9.686;2022-10-31T15:44:31;96933.00;;;24.90
56286;BMP180;42191;47.562;9.686;2022-10-31T15:47:02;96943.00;;;24.50
56286;BMP180;42191;47.562;9.686;2022-10-31T15:49:35;96929.00;;;24.10
56286;BMP180;42191;47.562;9.686;2022-10-31T15:52:44;96924.00;;;23.70
56286;BMP180;42191;47.562;9.686;2022-10-31T15:55:21;96917.00;;;23.30
56286;BMP180;42191;47.562;9.686;2022-10-31T15:57:55;96923.00;;;22.90
56286;BMP180;42191;47.562;9.686;2022-10-31T16:00:33;96932.00;;;22.50
56286;BMP180;42191;47.562;9.686;2022-10-31T16:05:53;96927.00;;;21.80
56286;BMP180;42191;47.562;9.686;2022-10-31T16:08:33;96922.00;;;21.50
56286;BMP180;42191;47.562;9.686;2022-10-31T16:13:51;96925.00;;;20.90
56286;BMP180;42191;47.562;9.686;2022-10-31T16:16:18;96918.00;;;20.70
56286;BMP180;42191;47.562;9.686;2022-10-31T16:18:47;96917.00;;;20.50
56286;BMP180;42191;47.562;9.686;2022-10-31T16:21:14;96923.00;;;20.20
56286;BMP180;42191;47.562;9.686;2022-10-31T16:23:45;96933.00;;;20.00
56286;BMP180;42191;47.562;9.686;2022-10-31T16:26:17;96930.00;;;19.90
56286;BMP180;42191;47.562;9.686;2022-10-31T16:28:54;96922.00;;;19.70
56286;BMP180;42191;47.562;9.686;2022-10-31T16:31:37;96926.00;;;19.50
56286;BMP180;42191;47.562;9.686;2022-10-31T16:34:21;96932.00;;;19.30
56286;BMP180;42191;47.562;9.686;2022-10-31T16:36:48;96937.00;;;19.20
56286;BMP180;42191;47.562;9.686;2022-10-31T16:39:14;96927.00;;;19.00
56286;BMP180;42191;47.562;9.686;2022-10-31T16:41:51;96925.00;;;18.90
56286;BMP180;42191;47.562;9.686;2022-10-31T16:44:25;96922.00;;;18.80
56286;BMP180;42191;47.562;9.686;2022-10-31T16:47:08;96930.00;;;18.60
56286;BMP180;42191;47.562;9.686;2022-10-31T16:49:35;96934.00;;;18.50
56286;BMP180;42191;47.562;9.686;2022-10-31T16:52:01;96934.00;;;18.40
56286;BMP180;42191;47.562;9.686;2022-10-31T16:54:29;96926.00;;;18.20
56286;BMP180;42191;47.562;9.686;2022-10-31T16:56:55;96928.00;;;18.10
56286;BMP180;42191;47.562;9.686;2022-10-31T16:59:23;96925.00;;;18.00
56286;BMP180;42191;47.562;9.686;2022-10-31T17:01:49;96933.00;;;17.90